John Wayne Airport-Orange County Airport
KSNA : now visible

Airfield :











YOU CAN JOIN US ON...

 
LOGIN :

Register | Disclaimer

   EN    FR    IT 

 









Legend :    VFR   Marginal VFR   IFR   Intensive IFR   Very Intensive IFR
Visi :
Ceiling :
>= 8 km
>= 3000ft
5 to 8 km
1000 to 3000 ft
1500m to 5 km
500 to 1000 ft
800 to 1500m
200 to 500 ft
< 800m
< 200 ft
Symbols :   Thunderstorms  Fog  Heavy snow  Heavy precipitations  Wind > 20 kt







- Airport Elevation : 56 ft
- IATA code : SNA


KSNA - John Wayne -Orange County

CURRENT METAR :
  • 160853Z AUTO 00000KT 10SM BKN024 11/08 A3010 RMK AO2 RAE06 SLP193 P0000 60003 T01110083 56002

EXPIRED METARs :
  • 160753Z AUTO 25005KT 7SM -RA FEW027 FEW042 OVC055 12/08 A3010 RMK AO2 RAB34 SLP193 P0003 T01170083 401670094
  • 160653Z VRB05KT 10SM FEW024 FEW035 BKN085 13/08 A3010 RMK AO2 SLP193 LAST T01280078
  • 160553Z VRB03KT 10SM FEW026 SCT037 BKN055 BKN130 12/09 A3011 RMK AO2 SLP195 60009 T01220089 10150 20122 53006

TAF KSNA
Valid from the 16 at 08:00 until the 17 at 06:00 UTC


160750Z 1608/1706 VRB05KT P6SM -SHRA SCT025 BKN035
FM160900 VRB05KT P6SM VCSH SCT035 BKN070
FM161700 27010KT P6SM SCT045
KZLA FIR / North America



MET'MAP, your aeronautical weather chart ! - Copyright ORBIFLY December 2007 - Disclaimer

ORBIFLY MET'MAP TEAM :

Programming & Development : Alexandra Zaïnal
Concept & Development : Baudouin d'Aumeries
Co-Development & Prog : Marc-Olivier Méhu
Technical & hardware support : Manuel Goepfert

Contact : metmap@orbifly.com




SOURCES & CREDITS :

   NOAA       Earth
Advisory